Decoded Metar for KRHI (RHINELANDER in WI, USA) (IATA:RHI) | Meteo·Mobile Aviation Weather
aviador You're here:

KRHI Decoded Metar

RHINELANDER in WI, USA
Report Time2019-10-18 12:53:00
UTC Time2019-10-18 13:15:32
Flight Rules vfr VFR
Wind140° at 05 kt
W.Decomp.*RWY 15: 5.0 kt HW 0.6 kt LCW
RWY 09: 3.0 kt HW 4.0 kt RCW
Visibility9999 m
Phenomena:N/A
Clouds:N/A
Expected CloudBase > 400 ft AGL from Temp-Dew spread
CeilingNone
Temp01°C (ISA -11)
Dew Point00°C (93% RH)
AAT-2.8°C
QNH1015 hPa
Density Alt295 ft
Elevation1,591 ft
Report Wrong Elevation
Raw Report
KRHI 181253Z AUTO 14005KT 10SM CLR 01/00 A2997 RMK AO2 SLP167
I1000 T00110000=

Extra information for KRHI:More info

Metar Taf Metar & Taf Last 4 Metars F.Rules Stats Wind Profile Meteogram Temp Stats Airport Information Weather charts Add Link Nearby VenuesMetar ALERT Operation Metar Decoded Social comments

AIRNAV info for KRHI